Portada
METAR-TAF:

METAR-TAF

Aeroports :

Essaouira, Marroc

Aeroport d'Essaouira-Mogador

latitud: 31-31N, longitud: 009-47W, altitud: 15 m

Observació

L'informe es va fer fa 3 hores i 36 minuts, a les 18:00 UTC
Vent 12 kt del Sud-Oest
Temperatura 18°C
Humitat 77%
Pressió 1011 hPa
Visibilitat: 8000 m
Cel ennuvolat a una alçada de 1600 ft

METAR: GMMI 221800Z 22012KT 8000 BKN016 18/14 Q1011 NOSIG

Hora: 22:36 (21:36 UTC)

Pronòstic

L'informe es va fer fa 4 hores i 36 minuts, a les 17:00 UTC
Pronòstic vàlid del 22 a les 18 UTC al 23 a les 24 UTC
Vent 16 kt del Oest
Visibilitat: 8000 m
Cel ennuvolat a una alçada de 1600 ft
Temporalment
l' 23 a les 05 UTC al 23 a les 14 UTC
Visibilitat: 3000 m
Núvols disperses a una alçada de 1300 ft
Cel ennuvolat a una alçada de 3000 ft
pluja

TAF: GMMI 221700Z 2218/2324 26016KT 8000 BKN016 TEMPO 2305/2314 3000 RA SCT013 BKN030

Observacions i pronòstics meteorològics de més de 4000 aeroports (METAR i TAF).

Les estacions disponibles són els punts grocs i vermells al mapa.

Posi el ratolí al punt desitjat per veure el nom de l'estació.

Feu clic per veure les observacions i els pronòstics meteorològics.

Per canviar el mapa: feu clic els botons verds amb una creu de color negre per apropar; al botó verd amb un guió per allunyar la imatge; o en les fletxes verdes per a mapes adjacents.


METAR-TAF: